Apj Shirin — 3EVS6 — position and weather

sailwx.info

Track history (hours):
 
Tides and Currents Weather Stations Pressure Air Temp Water Temp Dewpoint Dewpoint Depression Visibility Wind Speed Wind Dir Waves Ship Positions

Apj Shirin

Last reported at 2016-Sep-26 20:32 UTC. Time now 2016-Sep-26 22:31 UTC.
Position S 29°52' E 031°02'.

Length 189 m; draft 12.2 m.

Type: Cargo ship. MMSI: 373223000.

Date/timePositionNaut miles runAvg speedWind from/ knotsBaromVisibWave heightAir tempDewpointWater temp
2016-Sep-26 20:32S 29°52' E 031°02'0 0.0
2016-Sep-26 19:32S 29°52' E 031°02'0 0.0
2016-Sep-26 15:34S 29°52' E 031°02'0 0.0
2016-Sep-26 13:33S 29°52' E 031°02'0 0.0
2016-Sep-26 11:33S 29°52' E 031°02'0 0.0
2016-Sep-26 08:33S 29°52' E 031°02'0 0.0
2016-Sep-26 02:34S 29°52' E 031°02'0 0.0
2016-Sep-26 01:33S 29°52' E 031°02'0 0.0
2016-Sep-26 00:33S 29°52' E 031°02'0 0.0
2016-Sep-25 21:34S 29°52' E 031°02'0 0.0
2016-Sep-25 17:34S 29°52' E 031°02'0 0.0
2016-Sep-25 16:33S 29°52' E 031°02'0 0.0
2016-Sep-25 15:34S 29°52' E 031°02'0 0.0
2016-Sep-25 14:34S 29°52' E 031°02'0 0.0
2016-Sep-25 12:34S 29°52' E 031°02'0 0.0
2016-Sep-25 11:34S 29°52' E 031°02'0 0.0
2016-Sep-25 10:34S 29°52' E 031°02'0 0.0
2016-Sep-25 09:34S 29°52' E 031°02'0 0.0
2016-Sep-25 07:34S 29°52' E 031°02'1 0.3
2016-Sep-25 04:33S 29°53' E 031°02'0 0.0
2016-Sep-25 00:34S 29°53' E 031°02'0 0.0
2016-Sep-24 22:33S 29°53' E 031°02'0 0.0
2016-Sep-24 21:33S 29°53' E 031°02'0 0.0
2016-Sep-24 19:34S 29°53' E 031°02'0 0.0
2016-Sep-24 18:33S 29°53' E 031°02'0 0.0
2016-Sep-24 17:33S 29°53' E 031°02'0 0.0
2016-Sep-24 16:34S 29°53' E 031°02'0 0.0
2016-Sep-24 14:34S 29°53' E 031°02'0 0.0
2016-Sep-24 12:33S 29°53' E 031°02'0 0.0
2016-Sep-24 10:33S 29°53' E 031°02'0 0.0
2016-Sep-24 09:33S 29°53' E 031°02'0 0.0
2016-Sep-24 03:33S 29°53' E 031°02'0 0.0
2016-Sep-24 02:34S 29°53' E 031°02'0 0.0
2016-Sep-24 01:33S 29°53' E 031°02'0 0.0
2016-Sep-24 00:33S 29°53' E 031°02'0 0.0
2016-Sep-23 19:33S 29°53' E 031°02'0 0.0
2016-Sep-23 17:34S 29°53' E 031°02'0 0.0
2016-Sep-23 16:34S 29°53' E 031°02'0 0.0
2016-Sep-23 15:34S 29°53' E 031°02'0 0.0
2016-Sep-23 13:34S 29°53' E 031°02'0 0.0
2016-Sep-23 09:33S 29°53' E 031°02'0 0.0
2016-Sep-23 06:34S 29°53' E 031°02'0 0.0
2016-Sep-23 04:34S 29°53' E 031°02'0 0.0
2016-Sep-23 03:33S 29°53' E 031°02'0 0.0
2016-Sep-23 02:34S 29°53' E 031°02'0 0.0
2016-Sep-23 01:33S 29°53' E 031°02'0 0.0
2016-Sep-23 00:33S 29°53' E 031°02'0 0.0
2016-Sep-22 23:34S 29°53' E 031°02'0 0.0
2016-Sep-22 20:34S 29°53' E 031°02'0 0.0
2016-Sep-22 12:32S 29°53' E 031°02'0 0.0
2016-Sep-22 04:34S 29°53' E 031°02'0 0.0
2016-Sep-22 03:34S 29°53' E 031°02'0 0.0
2016-Sep-22 00:33S 29°53' E 031°02'0 0.0
2016-Sep-21 23:33S 29°53' E 031°02'0 0.0
2016-Sep-21 22:34S 29°53' E 031°02'0 0.0
2016-Sep-21 19:31S 29°53' E 031°02'0 0.0
2016-Sep-21 16:33S 29°53' E 031°02'0 0.0
2016-Sep-21 09:34S 29°53' E 031°02'0 0.0
2016-Sep-21 08:32S 29°53' E 031°02'0 0.0
2016-Sep-21 05:34S 29°53' E 031°02'0 0.0
2016-Sep-21 03:34S 29°53' E 031°02'0 0.0
2016-Sep-21 02:33S 29°53' E 031°02'0 0.0
2016-Sep-20 17:33S 29°53' E 031°02'0 0.0
2016-Sep-20 14:32S 29°53' E 031°02'0 0.0
2016-Sep-20 13:32S 29°53' E 031°02'0 0.0
2016-Sep-20 10:34S 29°53' E 031°02'0 0.0
2016-Sep-20 08:33S 29°53' E 031°02'0 0.0
2016-Sep-20 07:34S 29°53' E 031°02'0 0.0
2016-Sep-20 06:33S 29°53' E 031°02'0 0.0
2016-Sep-20 02:33S 29°53' E 031°02'4 1.3
2016-Sep-19 23:33S 29°50' E 031°06'9 2.3
2016-Sep-19 19:33S 29°44' E 031°14'0 0.0
2016-Sep-19 18:33S 29°44' E 031°14'0 0.0
2016-Sep-19 16:30S 29°44' E 031°14'0 0.0
2016-Sep-19 14:33S 29°44' E 031°14'0 0.0
2016-Sep-19 13:33S 29°44' E 031°14'0 0.0
2016-Sep-19 12:33S 29°44' E 031°14'0 0.0
2016-Sep-19 11:33S 29°44' E 031°14'0 0.0
2016-Sep-19 09:30S 29°44' E 031°14'0 0.0
2016-Sep-19 07:33S 29°44' E 031°14'0 0.0
2016-Sep-19 06:33S 29°44' E 031°14'0 0.0
2016-Sep-19 03:33S 29°44' E 031°14'0 0.0
2016-Sep-19 02:33S 29°44' E 031°14'0 0.0
2016-Sep-19 00:33S 29°44' E 031°14'0 0.0
2016-Sep-18 19:30S 29°44' E 031°14'0 0.0
2016-Sep-18 15:33S 29°44' E 031°14'0 0.0
2016-Sep-18 14:33S 29°44' E 031°14'0 0.0
2016-Sep-18 10:33S 29°44' E 031°14'0 0.0
2016-Sep-18 09:33S 29°44' E 031°14'0 0.0
2016-Sep-18 02:33S 29°44' E 031°14'0 0.0
2016-Sep-18 01:33S 29°44' E 031°14'0 0.0
2016-Sep-18 00:33S 29°44' E 031°14'0 0.0
2016-Sep-17 22:33S 29°44' E 031°14'0 0.0
2016-Sep-17 21:33S 29°44' E 031°14'0 0.0
2016-Sep-17 20:33S 29°44' E 031°14'0 0.0
2016-Sep-17 19:15S 29°44' E 031°14'0 0.0
2016-Sep-17 13:33S 29°44' E 031°14'0 0.0
2016-Sep-17 12:30S 29°44' E 031°14'0 0.0
2016-Sep-17 10:33S 29°44' E 031°14'0 0.0
2016-Sep-17 09:30S 29°44' E 031°14'0 0.0
2016-Sep-17 08:33S 29°44' E 031°14'0 0.0
2016-Sep-17 07:33S 29°44' E 031°14'0 0.0
2016-Sep-17 05:33S 29°44' E 031°14'0 0.0
2016-Sep-17 04:33S 29°44' E 031°14'0 0.0
2016-Sep-17 00:33S 29°44' E 031°14'  
Track history (hours):
 
Tides and Currents Weather Stations Pressure Air Temp Water Temp Dewpoint Dewpoint Depression Visibility Wind Speed Wind Dir Waves Ship Positions

Apj Shirin

Last reported at 2016-Sep-26 20:32 UTC. Time now 2016-Sep-26 22:31 UTC.
Position S 29°52' E 031°02'.

Length 189 m; draft 12.2 m.

Type: Cargo ship. MMSI: 373223000.

Date/timePositionNaut miles runAvg speedWind from/ knotsBaromVisibWave heightAir tempDewpointWater temp
2016-Sep-26 20:32S 29°52' E 031°02'0 0.0
2016-Sep-26 19:32S 29°52' E 031°02'0 0.0
2016-Sep-26 15:34S 29°52' E 031°02'0 0.0
2016-Sep-26 13:33S 29°52' E 031°02'0 0.0
2016-Sep-26 11:33S 29°52' E 031°02'0 0.0
2016-Sep-26 08:33S 29°52' E 031°02'0 0.0
2016-Sep-26 02:34S 29°52' E 031°02'0 0.0
2016-Sep-26 01:33S 29°52' E 031°02'0 0.0
2016-Sep-26 00:33S 29°52' E 031°02'0 0.0
2016-Sep-25 21:34S 29°52' E 031°02'0 0.0
2016-Sep-25 17:34S 29°52' E 031°02'0 0.0
2016-Sep-25 16:33S 29°52' E 031°02'0 0.0
2016-Sep-25 15:34S 29°52' E 031°02'0 0.0
2016-Sep-25 14:34S 29°52' E 031°02'0 0.0
2016-Sep-25 12:34S 29°52' E 031°02'0 0.0
2016-Sep-25 11:34S 29°52' E 031°02'0 0.0
2016-Sep-25 10:34S 29°52' E 031°02'0 0.0
2016-Sep-25 09:34S 29°52' E 031°02'0 0.0
2016-Sep-25 07:34S 29°52' E 031°02'1 0.3
2016-Sep-25 04:33S 29°53' E 031°02'0 0.0
2016-Sep-25 00:34S 29°53' E 031°02'0 0.0
2016-Sep-24 22:33S 29°53' E 031°02'0 0.0
2016-Sep-24 21:33S 29°53' E 031°02'0 0.0
2016-Sep-24 19:34S 29°53' E 031°02'0 0.0
2016-Sep-24 18:33S 29°53' E 031°02'0 0.0
2016-Sep-24 17:33S 29°53' E 031°02'0 0.0
2016-Sep-24 16:34S 29°53' E 031°02'0 0.0
2016-Sep-24 14:34S 29°53' E 031°02'0 0.0
2016-Sep-24 12:33S 29°53' E 031°02'0 0.0
2016-Sep-24 10:33S 29°53' E 031°02'0 0.0
2016-Sep-24 09:33S 29°53' E 031°02'0 0.0
2016-Sep-24 03:33S 29°53' E 031°02'0 0.0
2016-Sep-24 02:34S 29°53' E 031°02'0 0.0
2016-Sep-24 01:33S 29°53' E 031°02'0 0.0
2016-Sep-24 00:33S 29°53' E 031°02'0 0.0
2016-Sep-23 19:33S 29°53' E 031°02'0 0.0
2016-Sep-23 17:34S 29°53' E 031°02'0 0.0
2016-Sep-23 16:34S 29°53' E 031°02'0 0.0
2016-Sep-23 15:34S 29°53' E 031°02'0 0.0
2016-Sep-23 13:34S 29°53' E 031°02'0 0.0
2016-Sep-23 09:33S 29°53' E 031°02'0 0.0
2016-Sep-23 06:34S 29°53' E 031°02'0 0.0
2016-Sep-23 04:34S 29°53' E 031°02'0 0.0
2016-Sep-23 03:33S 29°53' E 031°02'0 0.0
2016-Sep-23 02:34S 29°53' E 031°02'0 0.0
2016-Sep-23 01:33S 29°53' E 031°02'0 0.0
2016-Sep-23 00:33S 29°53' E 031°02'0 0.0
2016-Sep-22 23:34S 29°53' E 031°02'0 0.0
2016-Sep-22 20:34S 29°53' E 031°02'0 0.0
2016-Sep-22 12:32S 29°53' E 031°02'0 0.0
2016-Sep-22 04:34S 29°53' E 031°02'0 0.0
2016-Sep-22 03:34S 29°53' E 031°02'0 0.0
2016-Sep-22 00:33S 29°53' E 031°02'0 0.0
2016-Sep-21 23:33S 29°53' E 031°02'0 0.0
2016-Sep-21 22:34S 29°53' E 031°02'0 0.0
2016-Sep-21 19:31S 29°53' E 031°02'0 0.0
2016-Sep-21 16:33S 29°53' E 031°02'0 0.0
2016-Sep-21 09:34S 29°53' E 031°02'0 0.0
2016-Sep-21 08:32S 29°53' E 031°02'0 0.0
2016-Sep-21 05:34S 29°53' E 031°02'0 0.0
2016-Sep-21 03:34S 29°53' E 031°02'0 0.0
2016-Sep-21 02:33S 29°53' E 031°02'0 0.0
2016-Sep-20 17:33S 29°53' E 031°02'0 0.0
2016-Sep-20 14:32S 29°53' E 031°02'0 0.0
2016-Sep-20 13:32S 29°53' E 031°02'0 0.0
2016-Sep-20 10:34S 29°53' E 031°02'0 0.0
2016-Sep-20 08:33S 29°53' E 031°02'0 0.0
2016-Sep-20 07:34S 29°53' E 031°02'0 0.0
2016-Sep-20 06:33S 29°53' E 031°02'0 0.0
2016-Sep-20 02:33S 29°53' E 031°02'4 1.3
2016-Sep-19 23:33S 29°50' E 031°06'9 2.3
2016-Sep-19 19:33S 29°44' E 031°14'0 0.0
2016-Sep-19 18:33S 29°44' E 031°14'0 0.0
2016-Sep-19 16:30S 29°44' E 031°14'0 0.0
2016-Sep-19 14:33S 29°44' E 031°14'0 0.0
2016-Sep-19 13:33S 29°44' E 031°14'0 0.0
2016-Sep-19 12:33S 29°44' E 031°14'0 0.0
2016-Sep-19 11:33S 29°44' E 031°14'0 0.0
2016-Sep-19 09:30S 29°44' E 031°14'0 0.0
2016-Sep-19 07:33S 29°44' E 031°14'0 0.0
2016-Sep-19 06:33S 29°44' E 031°14'0 0.0
2016-Sep-19 03:33S 29°44' E 031°14'0 0.0
2016-Sep-19 02:33S 29°44' E 031°14'0 0.0
2016-Sep-19 00:33S 29°44' E 031°14'0 0.0
2016-Sep-18 19:30S 29°44' E 031°14'0 0.0
2016-Sep-18 15:33S 29°44' E 031°14'0 0.0
2016-Sep-18 14:33S 29°44' E 031°14'0 0.0
2016-Sep-18 10:33S 29°44' E 031°14'0 0.0
2016-Sep-18 09:33S 29°44' E 031°14'0 0.0
2016-Sep-18 02:33S 29°44' E 031°14'0 0.0
2016-Sep-18 01:33S 29°44' E 031°14'0 0.0
2016-Sep-18 00:33S 29°44' E 031°14'0 0.0
2016-Sep-17 22:33S 29°44' E 031°14'0 0.0
2016-Sep-17 21:33S 29°44' E 031°14'0 0.0
2016-Sep-17 20:33S 29°44' E 031°14'0 0.0
2016-Sep-17 19:15S 29°44' E 031°14'0 0.0
2016-Sep-17 13:33S 29°44' E 031°14'0 0.0
2016-Sep-17 12:30S 29°44' E 031°14'0 0.0
2016-Sep-17 10:33S 29°44' E 031°14'0 0.0
2016-Sep-17 09:30S 29°44' E 031°14'0 0.0
2016-Sep-17 08:33S 29°44' E 031°14'0 0.0
2016-Sep-17 07:33S 29°44' E 031°14'0 0.0
2016-Sep-17 05:33S 29°44' E 031°14'0 0.0
2016-Sep-17 04:33S 29°44' E 031°14'0 0.0
2016-Sep-17 00:33S 29°44' E 031°14'  

Dump ship's entire track history